DEPIF EDXW-EDXW
Flight info
| Callsign | DEPIF |
|---|---|
| Flight time | 0h 4m |
| Altitude | |
| Route | EDXW/32 |
| Aircraft | DA40 |
Departure
| Time | 2026-03-25 14:11 |
|---|---|
| Airport | Westerland Sylt Airport (EDXW) |
Arrival
| Time | 2026-03-25 14:15 |
|---|---|
| Airport | Westerland Sylt Airport (EDXW) |
| Time | Latitude | Longitude | Altitude | Speed | Heading |
|---|---|---|---|---|---|
| 2026-03-25 13:57 | 54.91286 | 8.32483 | 19 ft | 0 kts | 250° |
| 2026-03-25 14:01 | 54.91284 | 8.32469 | 19 ft | 0 kts | 246° |
| 2026-03-25 14:02 | 54.91257 | 8.32481 | 19 ft | 14 kts | 152° |
| 2026-03-25 14:02 | 54.91160 | 8.32619 | 19 ft | 19 kts | 140° |
| 2026-03-25 14:02 | 54.91092 | 8.32716 | 19 ft | 7 kts | 118° |
| 2026-03-25 14:02 | 54.91060 | 8.32877 | 24 ft | 21 kts | 116° |
| 2026-03-25 14:03 | 54.90922 | 8.33133 | 21 ft | 36 kts | 150° |
| 2026-03-25 14:03 | 54.90724 | 8.33223 | 27 ft | 20 kts | 179° |
| 2026-03-25 14:03 | 54.90624 | 8.33238 | 26 ft | 16 kts | 181° |
| 2026-03-25 14:03 | 54.90500 | 8.33268 | 25 ft | 25 kts | 161° |
| 2026-03-25 14:04 | 54.90322 | 8.33504 | 23 ft | 34 kts | 124° |
| 2026-03-25 14:04 | 54.90244 | 8.33957 | 23 ft | 41 kts | 98° |
| 2026-03-25 14:04 | 54.90278 | 8.34365 | 25 ft | 28 kts | 63° |
| 2026-03-25 14:04 | 54.90374 | 8.34578 | 30 ft | 18 kts | 42° |
| 2026-03-25 14:05 | 54.90472 | 8.34743 | 30 ft | 22 kts | 42° |
| 2026-03-25 14:05 | 54.90526 | 8.34820 | 31 ft | 0 kts | 42° |
| 2026-03-25 14:07 | 54.90529 | 8.34825 | 31 ft | 5 kts | 45° |
| 2026-03-25 14:08 | 54.90590 | 8.34928 | 31 ft | 7 kts | 46° |
| 2026-03-25 14:08 | 54.90605 | 8.34938 | 31 ft | 0 kts | 327° |
| 2026-03-25 14:10 | 54.90608 | 8.34933 | 31 ft | 5 kts | 318° |
| 2026-03-25 14:10 | 54.90752 | 8.34762 | 30 ft | 48 kts | 320° |
| 2026-03-25 14:10 | 54.91016 | 8.34488 | 256 ft | 42 kts | 309° |
| 2026-03-25 14:10 | 54.91297 | 8.34134 | 340 ft | 57 kts | 312° |
| 2026-03-25 14:11 | 54.91617 | 8.33709 | 521 ft | 55 kts | 309° |
| 2026-03-25 14:11 | 54.91945 | 8.33320 | 682 ft | 62 kts | 314° |
| 2026-03-25 14:11 | 54.92328 | 8.32861 | 831 ft | 70 kts | 316° |
| 2026-03-25 14:11 | 54.92799 | 8.32526 | 1021 ft | 83 kts | 345° |
| 2026-03-25 14:12 | 54.93357 | 8.33112 | 1185 ft | 113 kts | 39° |
| 2026-03-25 14:12 | 54.93531 | 8.34582 | 1215 ft | 143 kts | 95° |
| 2026-03-25 14:12 | 54.93083 | 8.36149 | 1252 ft | 148 kts | 138° |
| 2026-03-25 14:12 | 54.92266 | 8.37248 | 1215 ft | 148 kts | 155° |
| 2026-03-25 14:13 | 54.91415 | 8.38192 | 1244 ft | 142 kts | 158° |
| 2026-03-25 14:13 | 54.90568 | 8.39065 | 1228 ft | 142 kts | 159° |
| 2026-03-25 14:13 | 54.89708 | 8.39832 | 1125 ft | 131 kts | 177° |
| 2026-03-25 14:13 | 54.88946 | 8.39666 | 1012 ft | 98 kts | 230° |
| 2026-03-25 14:14 | 54.88491 | 8.38886 | 824 ft | 88 kts | 244° |
| 2026-03-25 14:14 | 54.88301 | 8.38029 | 676 ft | 70 kts | 283° |
| 2026-03-25 14:14 | 54.88615 | 8.37411 | 542 ft | 66 kts | 317° |
| 2026-03-25 14:14 | 54.88978 | 8.36970 | 422 ft | 65 kts | 316° |
| 2026-03-25 14:15 | 54.89333 | 8.36525 | 329 ft | 59 kts | 316° |
| 2026-03-25 14:15 | 54.89645 | 8.36146 | 248 ft | 52 kts | 313° |
| 2026-03-25 14:15 | 54.89923 | 8.35791 | 193 ft | 48 kts | 308° |
| 2026-03-25 14:15 | 54.90212 | 8.35424 | 128 ft | 53 kts | 314° |
| 2026-03-25 14:16 | 54.90493 | 8.35078 | 55 ft | 40 kts | 308° |
| 2026-03-25 14:16 | 54.90672 | 8.34847 | 28 ft | 36 kts | 324° |
| 2026-03-25 14:16 | 54.90948 | 8.34503 | 128 ft | 53 kts | 309° |
| 2026-03-25 14:16 | 54.91260 | 8.34153 | 303 ft | 59 kts | 315° |
| 2026-03-25 14:17 | 54.91614 | 8.33732 | 448 ft | 64 kts | 314° |
| 2026-03-25 14:17 | 54.91999 | 8.33290 | 571 ft | 73 kts | 316° |
| 2026-03-25 14:17 | 54.92348 | 8.32679 | 771 ft | 70 kts | 285° |
| 2026-03-25 14:17 | 54.92212 | 8.31771 | 849 ft | 93 kts | 240° |
| 2026-03-25 14:18 | 54.91567 | 8.31271 | 984 ft | 117 kts | 198° |
| 2026-03-25 14:18 | 54.90717 | 8.31638 | 1116 ft | 135 kts | 162° |
| 2026-03-25 14:18 | 54.89919 | 8.32609 | 1204 ft | 141 kts | 155° |
| 2026-03-25 14:18 | 54.89090 | 8.33596 | 1248 ft | 147 kts | 152° |
| 2026-03-25 14:19 | 54.88537 | 8.34307 | 1244 ft | 150 kts | 150° |
| 2026-03-25 14:19 | 54.87724 | 8.35405 | 1164 ft | 146 kts | 149° |
| 2026-03-25 14:19 | 54.86945 | 8.36494 | 929 ft | 139 kts | 150° |
| 2026-03-25 14:19 | 54.86459 | 8.37802 | 767 ft | 121 kts | 96° |
| 2026-03-25 14:20 | 54.86568 | 8.39104 | 663 ft | 103 kts | 50° |
| 2026-03-25 14:20 | 54.87030 | 8.39842 | 561 ft | 80 kts | 358° |
| 2026-03-25 14:20 | 54.87420 | 8.39551 | 563 ft | 63 kts | 306° |
| 2026-03-25 14:20 | 54.87730 | 8.38905 | 583 ft | 78 kts | 306° |
| 2026-03-25 14:21 | 54.88105 | 8.38187 | 631 ft | 80 kts | 309° |
| 2026-03-25 14:21 | 54.88511 | 8.37588 | 579 ft | 75 kts | 314° |
| 2026-03-25 14:21 | 54.88885 | 8.37123 | 454 ft | 59 kts | 314° |
| 2026-03-25 14:21 | 54.89210 | 8.36710 | 335 ft | 59 kts | 314° |
| 2026-03-25 14:22 | 54.89542 | 8.36281 | 262 ft | 57 kts | 311° |
| 2026-03-25 14:22 | 54.89863 | 8.35865 | 191 ft | 56 kts | 312° |
| 2026-03-25 14:22 | 54.90176 | 8.35475 | 125 ft | 54 kts | 311° |
| 2026-03-25 14:22 | 54.90468 | 8.35109 | 47 ft | 53 kts | 313° |
| 2026-03-25 14:23 | 54.90719 | 8.34790 | 29 ft | 37 kts | 322° |
| 2026-03-25 14:23 | 54.91314 | 8.34054 | 309 ft | 55 kts | 313° |
| 2026-03-25 14:23 | 54.91658 | 8.33620 | 425 ft | 66 kts | 315° |
| 2026-03-25 14:24 | 54.92068 | 8.33108 | 552 ft | 79 kts | 319° |
| 2026-03-25 14:24 | 54.92499 | 8.32569 | 751 ft | 71 kts | 305° |
| 2026-03-25 14:24 | 54.92581 | 8.31759 | 909 ft | 79 kts | 260° |
| 2026-03-25 14:24 | 54.92120 | 8.31068 | 1045 ft | 104 kts | 215° |
| 2026-03-25 14:25 | 54.91321 | 8.31166 | 1139 ft | 132 kts | 165° |
| 2026-03-25 14:25 | 54.90495 | 8.31949 | 1176 ft | 140 kts | 159° |
| 2026-03-25 14:25 | 54.89645 | 8.32854 | 1206 ft | 146 kts | 156° |
| 2026-03-25 14:25 | 54.88779 | 8.33812 | 1138 ft | 146 kts | 156° |
| 2026-03-25 14:26 | 54.87907 | 8.34762 | 928 ft | 143 kts | 157° |
| 2026-03-25 14:26 | 54.87304 | 8.36041 | 908 ft | 136 kts | 108° |
| 2026-03-25 14:26 | 54.87348 | 8.37511 | 928 ft | 112 kts | 49° |
| 2026-03-25 14:26 | 54.87897 | 8.38125 | 792 ft | 86 kts | 345° |
| 2026-03-25 14:27 | 54.88362 | 8.37798 | 668 ft | 64 kts | 317° |
| 2026-03-25 14:27 | 54.88709 | 8.37348 | 574 ft | 64 kts | 313° |
| 2026-03-25 14:27 | 54.89070 | 8.36862 | 484 ft | 69 kts | 312° |
| 2026-03-25 14:27 | 54.89496 | 8.36296 | 354 ft | 85 kts | 318° |
| 2026-03-25 14:28 | 54.90030 | 8.35647 | 171 ft | 98 kts | 318° |
| 2026-03-25 14:28 | 54.90562 | 8.34995 | 135 ft | 90 kts | 316° |
| 2026-03-25 14:28 | 54.91063 | 8.34374 | 114 ft | 88 kts | 316° |
| 2026-03-25 14:28 | 54.91570 | 8.33749 | 198 ft | 88 kts | 317° |
| 2026-03-25 14:29 | 54.92066 | 8.33139 | 354 ft | 85 kts | 317° |
| 2026-03-25 14:29 | 54.92545 | 8.32617 | 550 ft | 79 kts | 320° |
| 2026-03-25 14:29 | 54.93005 | 8.32128 | 773 ft | 76 kts | 320° |
| 2026-03-25 14:29 | 54.93441 | 8.31652 | 1044 ft | 72 kts | 318° |
| 2026-03-25 14:30 | 54.93865 | 8.31200 | 1267 ft | 74 kts | 324° |
| 2026-03-25 14:30 | 54.94432 | 8.31088 | 1379 ft | 94 kts | 351° |
| 2026-03-25 14:30 | 54.95126 | 8.31405 | 1403 ft | 109 kts | 1° |
| 2026-03-25 14:30 | 54.95850 | 8.31801 | 1525 ft | 107 kts | 2° |
| 2026-03-25 14:31 | 54.96557 | 8.32262 | 1586 ft | 111 kts | 6° |
| 2026-03-25 14:31 | 54.97246 | 8.32781 | 1749 ft | 108 kts | 7° |
| 2026-03-25 14:31 | 54.97958 | 8.33286 | 1792 ft | 113 kts | 5° |
| 2026-03-25 14:31 | 54.98675 | 8.33747 | 1945 ft | 108 kts | 4° |
| 2026-03-25 14:32 | 54.99384 | 8.34213 | 1993 ft | 109 kts | 4° |
| 2026-03-25 14:32 | 55.00099 | 8.34634 | 2053 ft | 108 kts | 0° |
| 2026-03-25 14:32 | 55.00824 | 8.35042 | 2074 ft | 112 kts | 1° |
| 2026-03-25 14:32 | 55.01575 | 8.35448 | 2108 ft | 112 kts | 2° |
| 2026-03-25 14:33 | 55.02305 | 8.35926 | 2151 ft | 113 kts | 3° |
| 2026-03-25 14:33 | 55.03051 | 8.36365 | 2170 ft | 113 kts | 2° |
| 2026-03-25 14:33 | 55.03786 | 8.36847 | 2218 ft | 112 kts | 2° |
| 2026-03-25 14:33 | 55.04519 | 8.37334 | 2256 ft | 112 kts | 3° |
| 2026-03-25 14:34 | 55.05247 | 8.37716 | 2286 ft | 109 kts | 358° |
| 2026-03-25 14:34 | 55.05984 | 8.38013 | 2292 ft | 108 kts | 356° |
| 2026-03-25 14:34 | 55.06723 | 8.38342 | 2300 ft | 111 kts | 2° |
| 2026-03-25 14:34 | 55.07457 | 8.38784 | 2326 ft | 111 kts | 4° |
| 2026-03-25 14:35 | 55.08186 | 8.39243 | 2330 ft | 111 kts | 2° |
| 2026-03-25 14:35 | 55.08923 | 8.39519 | 2340 ft | 105 kts | 350° |
| 2026-03-25 14:35 | 55.09647 | 8.39740 | 2368 ft | 113 kts | 4° |
| 2026-03-25 14:35 | 55.10340 | 8.40602 | 2325 ft | 134 kts | 33° |
| 2026-03-25 14:36 | 55.10786 | 8.42131 | 2335 ft | 150 kts | 65° |
| 2026-03-25 14:36 | 55.10856 | 8.43990 | 2353 ft | 156 kts | 87° |
| 2026-03-25 14:36 | 55.10600 | 8.45864 | 2365 ft | 161 kts | 109° |
| 2026-03-25 14:36 | 55.10063 | 8.47564 | 2423 ft | 159 kts | 127° |
| 2026-03-25 14:37 | 55.09322 | 8.49004 | 2444 ft | 159 kts | 142° |
| 2026-03-25 14:37 | 55.08455 | 8.50161 | 2482 ft | 155 kts | 154° |
| 2026-03-25 14:37 | 55.07498 | 8.50969 | 2500 ft | 151 kts | 169° |
| 2026-03-25 14:37 | 55.06525 | 8.51555 | 2569 ft | 149 kts | 171° |
| 2026-03-25 14:38 | 55.05548 | 8.52240 | 2589 ft | 152 kts | 167° |
| 2026-03-25 14:38 | 55.04574 | 8.52830 | 2655 ft | 137 kts | 191° |
| 2026-03-25 14:38 | 55.03828 | 8.52264 | 2626 ft | 110 kts | 245° |
| 2026-03-25 14:38 | 55.03344 | 8.51254 | 2645 ft | 107 kts | 247° |
| 2026-03-25 14:39 | 55.02901 | 8.50211 | 2628 ft | 108 kts | 250° |
| 2026-03-25 14:39 | 55.02483 | 8.49084 | 2513 ft | 114 kts | 252° |
| 2026-03-25 14:39 | 55.02111 | 8.47888 | 2465 ft | 110 kts | 257° |
| 2026-03-25 14:39 | 55.01771 | 8.46741 | 2533 ft | 102 kts | 255° |
| 2026-03-25 14:40 | 55.01436 | 8.45668 | 2577 ft | 100 kts | 256° |
| 2026-03-25 14:40 | 55.01120 | 8.44596 | 2583 ft | 100 kts | 257° |
| 2026-03-25 14:40 | 55.00827 | 8.43488 | 2555 ft | 101 kts | 260° |
| 2026-03-25 14:40 | 55.00549 | 8.42388 | 2567 ft | 100 kts | 260° |
| 2026-03-25 14:41 | 55.00285 | 8.41279 | 2595 ft | 99 kts | 260° |
| 2026-03-25 14:41 | 54.99933 | 8.40220 | 2612 ft | 103 kts | 252° |
| 2026-03-25 14:41 | 54.99493 | 8.39204 | 2623 ft | 110 kts | 241° |
| 2026-03-25 14:41 | 54.98789 | 8.38479 | 2599 ft | 129 kts | 214° |
| 2026-03-25 14:42 | 54.97895 | 8.38152 | 2636 ft | 132 kts | 204° |
| 2026-03-25 14:42 | 54.96971 | 8.37977 | 2597 ft | 136 kts | 201° |
| 2026-03-25 14:42 | 54.96049 | 8.37812 | 2425 ft | 132 kts | 201° |
| 2026-03-25 14:42 | 54.95149 | 8.37637 | 2033 ft | 128 kts | 202° |
| 2026-03-25 14:43 | 54.94277 | 8.37439 | 1629 ft | 123 kts | 202° |
| 2026-03-25 14:43 | 54.93439 | 8.37317 | 1332 ft | 118 kts | 198° |
| 2026-03-25 14:43 | 54.92625 | 8.37433 | 1163 ft | 120 kts | 186° |
| 2026-03-25 14:43 | 54.91807 | 8.37773 | 1032 ft | 123 kts | 172° |
| 2026-03-25 14:44 | 54.91029 | 8.38344 | 926 ft | 121 kts | 167° |
| 2026-03-25 14:44 | 54.90303 | 8.38951 | 804 ft | 104 kts | 166° |
| 2026-03-25 14:44 | 54.89695 | 8.39273 | 754 ft | 81 kts | 203° |
| 2026-03-25 14:44 | 54.89290 | 8.38802 | 666 ft | 68 kts | 244° |
| 2026-03-25 14:45 | 54.89004 | 8.38150 | 584 ft | 68 kts | 251° |
| 2026-03-25 14:45 | 54.88863 | 8.37464 | 479 ft | 55 kts | 280° |
| 2026-03-25 14:45 | 54.89064 | 8.36904 | 387 ft | 56 kts | 306° |
| 2026-03-25 14:45 | 54.89359 | 8.36520 | 301 ft | 54 kts | 311° |
| 2026-03-25 14:46 | 54.89647 | 8.36130 | 256 ft | 55 kts | 309° |
| 2026-03-25 14:46 | 54.89944 | 8.35755 | 206 ft | 52 kts | 307° |
| 2026-03-25 14:46 | 54.90223 | 8.35417 | 110 ft | 45 kts | 307° |
| 2026-03-25 14:46 | 54.90492 | 8.35076 | 44 ft | 50 kts | 310° |
| 2026-03-25 14:47 | 54.90735 | 8.34773 | 29 ft | 32 kts | 323° |
| 2026-03-25 14:47 | 54.90891 | 8.34564 | 32 ft | 26 kts | 311° |
| 2026-03-25 14:47 | 54.90998 | 8.34421 | 34 ft | 18 kts | 329° |
| 2026-03-25 14:47 | 54.91112 | 8.34294 | 37 ft | 21 kts | 319° |
| 2026-03-25 14:48 | 54.91223 | 8.34156 | 35 ft | 18 kts | 323° |
| 2026-03-25 14:48 | 54.91301 | 8.33997 | 32 ft | 12 kts | 261° |
| 2026-03-25 14:48 | 54.91278 | 8.33887 | 28 ft | 12 kts | 243° |
| 2026-03-25 14:48 | 54.91208 | 8.33703 | 24 ft | 23 kts | 236° |
| 2026-03-25 14:49 | 54.91142 | 8.33503 | 19 ft | 13 kts | 239° |
| 2026-03-25 14:49 | 54.91069 | 8.33288 | 19 ft | 26 kts | 241° |
| 2026-03-25 14:49 | 54.91009 | 8.33064 | 20 ft | 19 kts | 263° |
| 2026-03-25 14:49 | 54.91053 | 8.32911 | 23 ft | 14 kts | 309° |
| 2026-03-25 14:50 | 54.91136 | 8.32743 | 19 ft | 21 kts | 306° |
| 2026-03-25 14:50 | 54.91212 | 8.32603 | 19 ft | 13 kts | 320° |
| 2026-03-25 14:50 | 54.91288 | 8.32526 | 19 ft | 3 kts | 280° |
| 2026-03-25 14:50 | 54.91284 | 8.32487 | 19 ft | 0 kts | 252° |